createdAt,value
2022-10-15T00:00:08.751Z,100194.66
2022-10-15T00:02:35.437Z,100195.56
2022-10-15T00:05:02.154Z,100192.88
2022-10-15T00:07:29.060Z,100198.22
2022-10-15T00:09:55.754Z,100196.47
2022-10-15T00:12:22.456Z,100190.25
2022-10-15T00:14:49.144Z,100192.03
2022-10-15T00:17:15.920Z,100199.19
2022-10-15T00:19:42.628Z,100185.81
2022-10-15T00:22:09.363Z,100185.81
2022-10-15T00:24:37.010Z,100176.91
2022-10-15T00:27:03.939Z,100180.50
2022-10-15T00:29:30.622Z,100175.28
2022-10-15T00:31:57.334Z,100177.16
2022-10-15T00:34:24.042Z,100179.03
2022-10-15T00:36:50.974Z,100182.72
2022-10-15T00:39:17.895Z,100176.63
2022-10-15T00:41:45.042Z,100183.81
2022-10-15T00:44:23.982Z,100186.59
2022-10-15T00:47:10.713Z,100190.25
2022-10-15T00:49:40.370Z,100194.81
2022-10-15T00:52:11.255Z,100179.78
2022-10-15T00:54:40.973Z,100174.66
2022-10-15T00:57:08.392Z,100176.53
2022-10-15T00:59:37.171Z,100187.31
2022-10-15T01:02:03.909Z,100181.25
2022-10-15T01:04:30.880Z,100184.94
2022-10-15T01:06:57.565Z,100197.56
2022-10-15T01:09:24.325Z,100186.09
2022-10-15T01:11:52.250Z,100179.09
2022-10-15T01:14:35.223Z,100181.94
2022-10-15T01:17:11.682Z,100183.00
2022-10-15T01:20:05.653Z,100174.28
2022-10-15T01:22:46.407Z,100170.88
2022-10-15T01:25:28.295Z,100179.06
2022-10-15T01:27:57.035Z,100174.81
2022-10-15T01:30:26.623Z,100179.31
2022-10-15T01:33:09.269Z,100180.34
2022-10-15T01:35:50.634Z,100176.97
2022-10-15T01:38:54.812Z,100180.66
2022-10-15T01:41:33.658Z,100166.59
2022-10-15T01:44:08.712Z,100162.38
2022-10-15T01:46:46.738Z,100169.63
2022-10-15T01:49:14.980Z,100170.56
2022-10-15T01:51:43.353Z,100164.50
2022-10-15T01:54:12.691Z,100175.28
2022-10-15T01:56:39.668Z,100169.09
2022-10-15T01:59:07.077Z,100170.13
2022-10-15T02:01:33.878Z,100176.50
2022-10-15T02:04:00.697Z,100181.91
2022-10-15T02:06:34.153Z,100167.78
2022-10-15T02:09:16.465Z,100169.66
2022-10-15T02:12:01.107Z,100162.66
2022-10-15T02:14:50.840Z,100158.34
2022-10-15T02:17:20.357Z,100157.59
2022-10-15T02:22:31.345Z,100150.72
2022-10-15T02:25:13.043Z,100149.06
2022-10-15T02:27:40.268Z,100151.84
2022-10-15T02:30:08.334Z,100160.00
2022-10-15T02:32:37.418Z,100153.84
2022-10-15T02:35:06.545Z,100159.31
2022-10-15T02:37:34.869Z,100154.97
2022-10-15T02:40:01.574Z,100148.91
2022-10-15T02:42:28.285Z,100149.91
2022-10-15T02:44:54.976Z,100142.91
2022-10-15T02:47:22.107Z,100148.34
2022-10-15T02:49:48.919Z,100141.31
2022-10-15T02:52:15.621Z,100137.88
2022-10-15T02:54:42.319Z,100138.84
2022-10-15T02:57:09.049Z,100144.28
2022-10-15T02:59:35.760Z,100144.31
2022-10-15T03:02:02.468Z,100143.53
2022-10-15T03:04:29.178Z,100140.13
2022-10-15T03:06:55.913Z,100140.16
2022-10-15T03:09:22.662Z,100142.03
2022-10-15T03:11:49.349Z,100141.19
2022-10-15T03:14:16.078Z,100147.50
2022-10-15T03:16:42.812Z,100147.59
2022-10-15T03:19:09.535Z,100144.97
2022-10-15T03:21:36.253Z,100141.50
2022-10-15T03:24:03.297Z,100138.03
2022-10-15T03:26:29.988Z,100141.63
2022-10-15T03:28:56.706Z,100139.97
2022-10-15T03:31:23.424Z,100138.28
2022-10-15T03:33:50.521Z,100142.75
2022-10-15T03:36:17.287Z,100141.09
2022-10-15T03:38:43.981Z,100148.25
2022-10-15T03:41:10.736Z,100145.69
2022-10-15T03:43:40.322Z,100151.09
2022-10-15T03:46:09.469Z,100146.69
2022-10-15T03:48:36.197Z,100141.44
2022-10-15T03:51:02.887Z,100138.81
2022-10-15T03:53:29.573Z,100150.44
2022-10-15T03:55:56.357Z,100149.63
2022-10-15T03:58:23.058Z,100150.59
2022-10-15T04:00:49.789Z,100141.72
2022-10-15T04:03:16.526Z,100135.53
2022-10-15T04:05:53.764Z,100129.34
2022-10-15T04:08:21.486Z,100145.34
2022-10-15T04:10:48.201Z,100143.50
2022-10-15T04:13:14.885Z,100145.25
2022-10-15T04:15:41.640Z,100146.91
2022-10-15T04:18:08.383Z,100145.09
2022-10-15T04:20:35.280Z,100152.09
2022-10-15T04:23:01.997Z,100149.38
2022-10-15T04:25:28.724Z,100147.66
2022-10-15T04:27:55.488Z,100153.00
2022-10-15T04:30:22.174Z,100154.88
2022-10-15T04:32:52.100Z,100150.50
2022-10-15T04:35:18.798Z,100155.94
2022-10-15T04:37:45.503Z,100149.81
2022-10-15T04:40:12.805Z,100148.16
2022-10-15T04:42:39.802Z,100149.13
2022-10-15T04:45:09.066Z,100160.75
2022-10-15T04:47:35.881Z,100165.28
2022-10-15T04:50:02.685Z,100161.78
2022-10-15T04:52:29.492Z,100169.03
2022-10-15T04:54:56.178Z,100164.69
2022-10-15T04:57:23.181Z,100175.38
2022-10-15T04:59:53.919Z,100168.34
2022-10-15T05:02:23.739Z,100171.91
2022-10-15T05:04:50.867Z,100171.06
2022-10-15T05:07:17.573Z,100174.66
2022-10-15T05:09:46.449Z,100177.34
2022-10-15T05:12:13.360Z,100172.94
2022-10-15T05:14:40.084Z,100174.72
2022-10-15T05:17:06.796Z,100177.44
2022-10-15T05:19:33.507Z,100173.00
2022-10-15T05:22:00.197Z,100173.91
2022-10-15T05:24:29.094Z,100172.16
2022-10-15T05:26:55.817Z,100172.25
2022-10-15T05:29:22.502Z,100171.34
2022-10-15T05:31:51.109Z,100174.03
2022-10-15T05:34:17.795Z,100168.72
2022-10-15T05:36:44.488Z,100177.59
2022-10-15T05:39:12.151Z,100174.13
2022-10-15T05:41:38.910Z,100189.22
2022-10-15T05:44:05.792Z,100186.63
2022-10-15T05:46:32.516Z,100175.09
2022-10-15T05:48:59.353Z,100189.34
2022-10-15T05:51:27.233Z,100184.06
2022-10-15T05:53:55.589Z,100187.66
2022-10-15T05:56:22.353Z,100186.81
2022-10-15T05:58:49.343Z,100191.28
2022-10-15T06:01:16.108Z,100192.22
2022-10-15T06:03:43.044Z,100205.53
2022-10-15T06:06:16.722Z,100200.22
2022-10-15T06:08:43.493Z,100202.91
2022-10-15T06:11:10.254Z,100197.56
2022-10-15T06:13:41.541Z,100206.44
2022-10-15T06:16:08.652Z,100198.47
2022-10-15T06:18:36.133Z,100198.47
2022-10-15T06:21:02.814Z,100203.72
2022-10-15T06:23:29.509Z,100204.59
2022-10-15T06:25:56.265Z,100201.03
2022-10-15T06:28:23.115Z,100197.47
2022-10-15T06:30:49.881Z,100204.47
2022-10-15T06:33:17.047Z,100197.38
2022-10-15T06:35:43.972Z,100203.53
2022-10-15T06:38:11.308Z,100201.72
2022-10-15T06:40:39.068Z,100205.22
2022-10-15T06:43:08.124Z,100217.59
2022-10-15T06:45:40.242Z,100221.06
2022-10-15T06:48:07.634Z,100226.31
2022-10-15T06:50:36.054Z,100223.56
2022-10-15T06:53:02.895Z,100220.84
2022-10-15T06:55:29.646Z,100224.28
2022-10-15T06:57:57.057Z,100224.22
2022-10-15T07:00:24.800Z,100225.00
2022-10-15T07:02:51.744Z,100236.47
2022-10-15T07:05:19.042Z,100234.56
2022-10-15T07:07:55.643Z,100239.84
2022-10-15T07:10:23.076Z,100241.53
2022-10-15T07:12:49.859Z,100239.63
2022-10-15T07:15:17.145Z,100247.53
2022-10-15T07:17:49.201Z,100255.38
2022-10-15T07:20:20.147Z,100251.75
2022-10-15T07:22:50.100Z,100263.13
2022-10-15T07:25:16.970Z,100259.44
2022-10-15T07:27:43.671Z,100261.06
2022-10-15T07:30:10.636Z,100259.09
2022-10-15T07:32:37.380Z,100267.00
2022-10-15T07:35:05.045Z,100265.06
2022-10-15T07:37:31.828Z,100255.16
2022-10-15T07:39:58.620Z,100255.84
2022-10-15T07:42:25.314Z,100261.88
2022-10-15T07:44:52.020Z,100253.75
2022-10-15T07:47:18.818Z,100250.94
2022-10-15T07:49:45.537Z,100249.94
2022-10-15T07:52:12.385Z,100247.09
2022-10-15T07:54:39.159Z,100247.81
2022-10-15T07:57:07.072Z,100246.84
2022-10-15T07:59:34.479Z,100238.63
2022-10-15T08:02:01.367Z,100247.41
2022-10-15T08:04:28.097Z,100248.13
2022-10-15T08:06:55.217Z,100247.03
2022-10-15T08:09:22.199Z,100245.09
2022-10-15T08:11:48.915Z,100244.97
2022-10-15T08:14:15.661Z,100250.19
2022-10-15T08:16:42.440Z,100248.25
2022-10-15T08:19:09.149Z,100239.22
2022-10-15T08:21:35.861Z,100242.63
2022-10-15T08:24:02.596Z,100230.94
2022-10-15T08:26:29.322Z,100237.91
2022-10-15T08:28:56.090Z,100245.81
2022-10-15T08:31:22.838Z,100245.69
2022-10-15T08:33:50.301Z,100249.09
2022-10-15T08:36:17.192Z,100249.72
2022-10-15T08:38:43.887Z,100246.75
2022-10-15T08:41:30.520Z,100243.84
2022-10-15T08:43:57.332Z,100257.78
2022-10-15T08:46:30.469Z,100253.94
2022-10-15T08:48:59.194Z,100250.91
2022-10-15T08:51:30.679Z,100251.41
2022-10-15T08:53:59.980Z,100254.75
2022-10-15T08:56:40.752Z,100251.78
2022-10-15T08:59:31.692Z,100255.94
2022-10-15T09:02:03.580Z,100250.25
2022-10-15T09:04:36.213Z,100241.91
2022-10-15T09:07:10.506Z,100249.66
2022-10-15T09:09:43.113Z,100256.59
2022-10-15T09:12:44.797Z,100255.59
2022-10-15T09:15:15.429Z,100253.69
2022-10-15T09:17:43.372Z,100257.03
2022-10-15T09:20:29.957Z,100247.72
2022-10-15T09:22:56.837Z,100249.09
2022-10-15T09:25:26.442Z,100248.75
2022-10-15T09:27:56.434Z,100238.72
2022-10-15T09:30:51.684Z,100246.44
2022-10-15T09:33:34.372Z,100253.38
2022-10-15T09:36:25.965Z,100256.84
2022-10-15T09:39:11.532Z,100259.56
2022-10-15T09:41:51.694Z,100256.03
2022-10-15T09:44:21.275Z,100259.53
2022-10-15T09:46:51.287Z,100256.78
2022-10-15T09:49:22.272Z,100256.63
2022-10-15T09:52:01.654Z,100251.13
2022-10-15T09:55:09.861Z,100249.13
2022-10-15T09:57:37.716Z,100249.13
2022-10-15T10:00:09.740Z,100242.91
2022-10-15T10:02:36.499Z,100251.00
2022-10-15T10:05:51.420Z,100248.38
2022-10-15T10:08:54.758Z,100242.06
2022-10-15T10:11:23.065Z,100245.56
2022-10-15T10:14:01.094Z,100253.63
2022-10-15T10:16:37.132Z,100259.63
2022-10-15T10:19:12.781Z,100262.88
2022-10-15T10:22:08.640Z,100259.88
2022-10-15T10:24:38.506Z,100246.41
2022-10-15T10:27:17.683Z,100251.66
2022-10-15T10:29:49.378Z,100248.81
2022-10-15T10:32:21.741Z,100250.44
2022-10-15T10:34:52.426Z,100245.66
2022-10-15T10:37:20.137Z,100240.84
2022-10-15T10:39:52.908Z,100250.34
2022-10-15T10:42:19.977Z,100256.31
2022-10-15T10:44:46.957Z,100241.63
2022-10-15T10:47:16.619Z,100238.38
2022-10-15T10:49:53.508Z,100241.47
2022-10-15T10:52:34.092Z,100238.25
2022-10-15T10:55:31.626Z,100246.56
2022-10-15T10:58:02.144Z,100241.84
2022-10-15T11:00:43.381Z,100220.22
2022-10-15T11:03:25.560Z,100226.41
2022-10-15T11:06:00.452Z,100225.75
2022-10-15T11:08:59.515Z,100227.75
2022-10-15T11:11:38.057Z,100226.31
2022-10-15T11:14:35.852Z,100222.94
2022-10-15T11:17:07.218Z,100221.34
2022-10-15T11:23:17.170Z,100223.47
2022-10-15T11:25:55.872Z,100224.63
2022-10-15T11:28:30.288Z,100223.06
2022-10-15T11:31:11.110Z,100220.66
2022-10-15T11:33:50.019Z,100218.94
2022-10-15T11:36:19.551Z,100215.38
2022-10-15T11:38:54.014Z,100208.97
2022-10-15T11:41:41.273Z,100209.44
2022-10-15T11:44:31.676Z,100199.19
2022-10-15T11:47:17.490Z,100181.84
2022-10-15T11:49:54.842Z,100197.53
2022-10-15T11:52:39.204Z,100195.97
2022-10-15T11:55:15.213Z,100183.69
2022-10-15T11:57:42.556Z,100182.19
2022-10-15T12:00:24.363Z,100189.81
2022-10-15T12:02:51.466Z,100182.25
2022-10-15T12:05:32.007Z,100185.59
2022-10-15T12:07:59.380Z,100193.56
2022-10-15T12:10:44.639Z,100192.56
2022-10-15T12:13:17.214Z,100182.72
2022-10-15T12:15:59.045Z,100181.63
2022-10-15T12:18:43.820Z,100178.56
2022-10-15T12:21:39.904Z,100179.16
2022-10-15T12:24:38.405Z,100183.66
2022-10-15T12:27:20.373Z,100177.41
2022-10-15T12:29:52.602Z,100173.94
2022-10-15T12:32:36.685Z,100160.41
2022-10-15T12:35:25.782Z,100166.66
2022-10-15T12:37:52.520Z,100167.75
2022-10-15T12:40:22.187Z,100163.31
2022-10-15T12:43:13.062Z,100149.97
2022-10-15T12:45:41.923Z,100152.72
2022-10-15T12:48:08.526Z,100150.84
2022-10-15T12:50:37.271Z,100148.13
2022-10-15T12:53:06.358Z,100137.38
2022-10-15T12:55:38.773Z,100131.03
2022-10-15T12:58:05.771Z,100124.72
2022-10-15T13:00:35.858Z,100120.22
2022-10-15T13:03:25.539Z,100119.34
2022-10-15T13:05:54.433Z,100122.03
2022-10-15T13:08:23.426Z,100122.91
2022-10-15T13:10:53.782Z,100119.41
2022-10-15T13:13:29.921Z,100118.47
2022-10-15T13:15:59.408Z,100109.53
2022-10-15T13:18:27.018Z,100114.91
2022-10-15T13:20:56.244Z,100112.31
2022-10-15T13:23:32.800Z,100114.03
2022-10-15T13:26:19.965Z,100112.31
2022-10-15T13:28:49.199Z,100111.44
2022-10-15T13:31:27.393Z,100113.97
2022-10-15T13:34:08.763Z,100101.22
2022-10-15T13:36:35.828Z,100100.06
2022-10-15T13:39:08.390Z,100096.19
2022-10-15T13:41:37.339Z,100100.50
2022-10-15T13:44:04.646Z,100094.16
2022-10-15T13:46:34.299Z,100103.25
2022-10-15T13:49:03.722Z,100090.88
2022-10-15T13:51:37.485Z,100093.63
2022-10-15T13:54:08.952Z,100085.66
2022-10-15T13:56:35.658Z,100082.81
2022-10-15T13:59:03.792Z,100078.22
2022-10-15T14:01:33.085Z,100077.25
2022-10-15T14:04:01.642Z,100077.25
2022-10-15T14:06:32.946Z,100093.41
2022-10-15T14:09:01.755Z,100081.84
2022-10-15T14:11:29.397Z,100082.88
2022-10-15T14:13:57.913Z,100078.53
2022-10-15T14:16:28.296Z,100078.69
2022-10-15T14:19:10.762Z,100078.69
2022-10-15T14:21:43.310Z,100076.94
2022-10-15T14:24:16.822Z,100077.88
2022-10-15T14:26:44.202Z,100082.31
2022-10-15T14:29:27.959Z,100082.31
2022-10-15T14:31:54.981Z,100081.44
2022-10-15T14:34:30.875Z,100076.06
2022-10-15T14:36:57.587Z,100072.50
2022-10-15T14:39:34.225Z,100080.41
2022-10-15T14:42:03.480Z,100083.03
2022-10-15T14:44:45.187Z,100088.47
2022-10-15T14:47:32.648Z,100086.66
2022-10-15T14:50:00.734Z,100087.53
2022-10-15T14:52:30.345Z,100085.78
2022-10-15T14:55:03.114Z,100075.91
2022-10-15T14:57:34.570Z,100082.16
2022-10-15T15:00:01.711Z,100088.41
2022-10-15T15:02:29.025Z,100083.03
2022-10-15T15:05:10.938Z,100078.59
2022-10-15T15:07:38.312Z,100076.94
2022-10-15T15:10:07.581Z,100083.19
2022-10-15T15:12:35.102Z,100073.44
2022-10-15T15:15:02.157Z,100081.63
2022-10-15T15:17:30.270Z,100084.38
2022-10-15T15:19:57.983Z,100075.44
2022-10-15T15:22:30.403Z,100080.91
2022-10-15T15:24:58.467Z,100079.06
2022-10-15T15:27:28.174Z,100084.53
2022-10-15T15:29:55.496Z,100095.28
2022-10-15T15:32:23.470Z,100088.16
2022-10-15T15:34:51.655Z,100089.09
2022-10-15T15:37:20.698Z,100087.47
2022-10-15T15:39:47.747Z,100092.97
2022-10-15T15:42:22.435Z,100100.31
2022-10-15T15:44:49.798Z,100102.13
2022-10-15T15:47:16.703Z,100093.28
2022-10-15T15:49:43.463Z,100094.22
2022-10-15T15:52:14.038Z,100082.59
2022-10-15T15:54:41.201Z,100079.97
2022-10-15T15:57:07.967Z,100084.50
2022-10-15T15:59:35.016Z,100084.50
2022-10-15T16:02:01.861Z,100087.34
2022-10-15T16:04:28.699Z,100087.34
2022-10-15T16:06:55.781Z,100085.69
2022-10-15T16:09:23.470Z,100085.75
2022-10-15T16:11:50.974Z,100080.53
2022-10-15T16:14:17.784Z,100082.41
2022-10-15T16:16:44.523Z,100082.56
2022-10-15T16:19:11.553Z,100089.03
2022-10-15T16:21:38.324Z,100083.06
2022-10-15T16:24:05.369Z,100087.72
2022-10-15T16:26:32.982Z,100103.13
2022-10-15T16:28:59.792Z,100090.75
2022-10-15T16:31:32.304Z,100103.19
2022-10-15T16:33:59.261Z,100107.78
2022-10-15T16:36:25.980Z,100106.97
2022-10-15T16:38:52.868Z,100102.53
2022-10-15T16:41:20.599Z,100106.25
2022-10-15T16:43:47.692Z,100106.25
2022-10-15T16:46:16.322Z,100110.75
2022-10-15T16:48:43.659Z,100116.13
2022-10-15T16:51:13.051Z,100121.50
2022-10-15T16:53:41.132Z,100130.47
2022-10-15T16:56:13.918Z,100130.69
2022-10-15T16:58:40.730Z,100127.28
2022-10-15T17:01:11.348Z,100129.31
2022-10-15T17:03:38.907Z,100125.00
2022-10-15T17:06:08.108Z,100135.91
2022-10-15T17:08:48.044Z,100133.38
2022-10-15T17:11:29.014Z,100134.44
2022-10-15T17:13:58.368Z,100142.63
2022-10-15T17:16:33.677Z,100133.78
2022-10-15T17:19:00.696Z,100139.16
2022-10-15T17:21:29.487Z,100142.84
2022-10-15T17:23:58.480Z,100151.94
2022-10-15T17:26:33.335Z,100147.50
2022-10-15T17:29:00.299Z,100146.69
2022-10-15T17:31:27.461Z,100147.69
2022-10-15T17:33:56.511Z,100146.81
2022-10-15T17:36:23.454Z,100154.09
2022-10-15T17:38:50.192Z,100148.97
2022-10-15T17:41:19.207Z,100147.22
2022-10-15T17:43:45.933Z,100150.94
2022-10-15T17:46:15.399Z,100152.84
2022-10-15T17:48:43.159Z,100154.75
2022-10-15T17:51:13.289Z,100171.00
2022-10-15T17:53:40.770Z,100161.34
2022-10-15T17:56:16.230Z,100165.03
2022-10-15T17:58:43.519Z,100167.75
2022-10-15T18:01:33.800Z,100167.75
2022-10-15T18:04:06.795Z,100178.50
2022-10-15T18:06:33.573Z,100173.13
2022-10-15T18:09:00.417Z,100169.47
2022-10-15T18:11:30.539Z,100181.84
2022-10-15T18:13:57.330Z,100183.59
2022-10-15T18:16:24.276Z,100191.50
2022-10-15T18:18:52.894Z,100196.81
2022-10-15T18:21:20.572Z,100195.81
2022-10-15T18:23:47.773Z,100192.13
2022-10-15T18:26:20.024Z,100212.53
2022-10-15T18:28:47.673Z,100205.31
2022-10-15T18:31:15.427Z,100215.03
2022-10-15T18:33:47.795Z,100215.03
2022-10-15T18:36:20.107Z,100215.03
2022-10-15T18:38:46.865Z,100216.88
2022-10-15T18:41:23.614Z,100220.53
2022-10-15T18:44:05.071Z,100223.34
2022-10-15T18:46:33.828Z,100225.13
2022-10-15T18:49:01.663Z,100227.03
2022-10-15T18:51:28.784Z,100228.91
2022-10-15T18:53:55.554Z,100244.22
2022-10-15T18:56:22.528Z,100246.16
2022-10-15T18:58:49.939Z,100257.00
2022-10-15T19:01:31.453Z,100257.88
2022-10-15T19:04:00.632Z,100266.88
2022-10-15T19:06:30.448Z,100255.28
2022-10-15T19:08:58.514Z,100242.81
2022-10-15T19:11:25.954Z,100258.06
2022-10-15T19:13:52.709Z,100256.28
2022-10-15T19:16:19.429Z,100256.31
2022-10-15T19:18:46.126Z,100258.22
2022-10-15T19:21:12.913Z,100255.59
2022-10-15T19:23:39.642Z,100253.03
2022-10-15T19:26:10.106Z,100252.16
2022-10-15T19:28:37.351Z,100254.03
2022-10-15T19:31:05.806Z,100263.03
2022-10-15T19:33:33.892Z,100268.41
2022-10-15T19:36:01.022Z,100260.34
2022-10-15T19:38:28.290Z,100262.94
2022-10-15T19:40:55.754Z,100260.28
2022-10-15T19:43:23.658Z,100274.56
2022-10-15T19:45:50.631Z,100274.50
2022-10-15T19:48:19.026Z,100279.00
2022-10-15T19:50:46.867Z,100284.38
2022-10-15T19:53:16.197Z,100292.47
2022-10-15T19:55:44.252Z,100289.88
2022-10-15T19:58:11.217Z,100311.41
2022-10-15T20:00:37.993Z,100322.28
2022-10-15T20:03:04.800Z,100316.91
2022-10-15T20:05:31.592Z,100313.28
2022-10-15T20:07:58.337Z,100323.09
2022-10-15T20:10:26.182Z,100314.03
2022-10-15T20:12:53.661Z,100306.88
2022-10-15T20:15:20.593Z,100313.06
2022-10-15T20:17:47.919Z,100330.88
2022-10-15T20:20:15.057Z,100334.44
2022-10-15T20:22:41.883Z,100339.66
2022-10-15T20:25:08.849Z,100342.34
2022-10-15T20:27:35.561Z,100339.66
2022-10-15T20:30:02.339Z,100336.94
2022-10-15T20:32:36.308Z,100346.78
2022-10-15T20:35:04.157Z,100343.28
2022-10-15T20:37:31.003Z,100357.66
2022-10-15T20:42:29.510Z,100360.53
2022-10-15T20:44:56.311Z,100372.19
2022-10-15T20:47:24.064Z,100388.28
2022-10-15T20:49:52.416Z,100390.97
2022-10-15T20:52:19.342Z,100393.66
2022-10-15T20:54:46.046Z,100399.03
2022-10-15T20:57:12.836Z,100404.41
2022-10-15T20:59:39.668Z,100406.16
2022-10-15T21:02:06.732Z,100407.94
2022-10-15T21:04:33.412Z,100417.72
2022-10-15T21:07:00.109Z,100413.22
2022-10-15T21:09:26.804Z,100413.19
2022-10-15T21:11:53.520Z,100419.44
2022-10-15T21:14:20.202Z,100421.22
2022-10-15T21:16:46.942Z,100425.72
2022-10-15T21:19:13.964Z,100423.91
2022-10-15T21:21:40.688Z,100423.09
2022-10-15T21:24:07.394Z,100422.25
2022-10-15T21:26:34.105Z,100424.09
2022-10-15T21:29:00.840Z,100419.75
2022-10-15T21:31:27.597Z,100446.63
2022-10-15T21:33:55.174Z,100442.31
2022-10-15T21:36:26.543Z,100450.44
2022-10-15T21:39:05.176Z,100449.66
2022-10-15T21:41:33.449Z,100452.47
2022-10-15T21:44:01.234Z,100459.69
2022-10-15T21:46:28.273Z,100458.88
2022-10-15T21:48:54.962Z,100459.94
2022-10-15T21:51:24.510Z,100464.44
2022-10-15T21:53:51.441Z,100468.06
2022-10-15T21:56:18.472Z,100469.13
2022-10-15T21:58:45.247Z,100469.19
2022-10-15T22:01:19.456Z,100458.56
2022-10-15T22:03:47.728Z,100466.69
2022-10-15T22:06:15.389Z,100471.22
2022-10-15T22:08:42.431Z,100480.25
2022-10-15T22:14:00.732Z,100489.34
2022-10-15T22:16:28.473Z,100494.75
2022-10-15T22:18:55.972Z,100506.41
2022-10-15T22:21:25.281Z,100498.47
2022-10-15T22:23:57.058Z,100491.41
2022-10-15T22:26:26.514Z,100494.16
2022-10-15T22:28:54.472Z,100503.13
2022-10-15T22:31:21.940Z,100501.44
2022-10-15T22:33:49.165Z,100504.16
2022-10-15T22:36:18.004Z,100501.59
2022-10-15T22:38:46.066Z,100506.13
2022-10-15T22:41:13.686Z,100496.41
2022-10-15T22:43:40.474Z,100500.88
2022-10-15T22:46:07.409Z,100507.28
2022-10-15T22:48:35.267Z,100503.81
2022-10-15T22:51:02.925Z,100502.97
2022-10-15T22:53:30.002Z,100510.22
2022-10-15T22:56:00.557Z,100512.13
2022-10-15T22:58:27.678Z,100513.97
2022-10-15T23:00:54.535Z,100522.09
2022-10-15T23:03:21.544Z,100523.97
2022-10-15T23:05:52.854Z,100523.19
2022-10-15T23:08:19.876Z,100525.91
2022-10-15T23:10:46.606Z,100529.63
2022-10-15T23:13:13.696Z,100525.22
2022-10-15T23:15:40.580Z,100525.38
2022-10-15T23:18:07.310Z,100528.16
2022-10-15T23:20:38.010Z,100530.03
2022-10-15T23:23:05.852Z,100528.34
2022-10-15T23:25:39.273Z,100521.34
2022-10-15T23:28:05.995Z,100526.81
2022-10-15T23:30:32.721Z,100532.19
2022-10-15T23:33:01.808Z,100535.00
2022-10-15T23:35:28.692Z,100535.97
2022-10-15T23:37:55.456Z,100536.94
2022-10-15T23:40:22.184Z,100539.75
2022-10-15T23:42:48.875Z,100543.41
2022-10-15T23:45:15.683Z,100534.53
2022-10-15T23:47:42.393Z,100543.56
2022-10-15T23:50:09.334Z,100540.09
2022-10-15T23:52:36.063Z,100523.19
2022-10-15T23:55:03.546Z,100531.28
2022-10-15T23:57:30.259Z,100539.41
2022-10-15T23:59:56.983Z,100530.53
